Pagina principale
METAR-TAF:

METAR-TAF

Aeroporti :

La Seu d'Urgell, Spagna

latitudine: 42-20-29N, longitudine: 001-24-17E, altezza: 802 m

METAR: mancante

Ora: 12:21 (10:21 UTC)

Previsione

Il bollettino è stato emesso 20 ore e 21 minuti fa, alle 14:00 UTC
Previsione valida dal 24 alle 15 UTC al 25 alle 15 UTC
Vento 12 kt da sud/sud-ovest
Visibilità 10 km o più
nessuna nube inferiore a 1500 m e nessun cumulonembo
Evoluzione graduale
dal 24 alle 17 UTC al 24 alle 19 UTC
Vento 3 kt da direzioni variabili
Evoluzione graduale
dal 25 alle 10 UTC al 25 alle 12 UTC
Vento 10 kt da sud/sud-ovest

TAF: LESU 241400Z 2415/2515 21012KT CAVOK TX36/2514Z TN16/2505Z BECMG 2417/2419 VRB03KT BECMG 2510/2512 20010KT

Osservazioni e previsioni meteorologiche di più di 4000 aeroporti (messaggi METAR e TAF).

Le stazioni disponibili sono rappresentate dai dischi gialli e rossi sulla carta.

Puntare il mouse per vedere il nome della stazione.

Clicca sopra per visualizzare le osservazioni e previsioni meteorologiche.

Per cambiare la mappa : fare clic sui pulsanti verdi con una croce nera per ingrandire, il pulsante verde con un trattino per diminuire, o sulla freccia verde per le mappe adiacenti.


METAR-TAF: